Time;durP1;ratioP1;P1;durP2;ratioP2;P2;SDS_P1;SDS_P2;PMS_P1;PMS_P2;Temp;Humidity;BMP_temperature;BMP_pressure;BME280_temperature;BME280_humidity;BME280_pressure;Samples;Min_cycle;Max_cycle;Signal;HPM_P1;HPM_P2
2023/10/23 00:02:13;;;;;;;6.80;3.40;;;;;;;7.59;100.00;100391.46;105534;1257;69200;-60
2023/10/23 00:04:42;;;;;;;8.40;4.00;;;;;;;7.58;100.00;100393.21;105649;1254;72881;-61
2023/10/23 00:07:10;;;;;;;6.70;4.30;;;;;;;7.58;100.00;100393.57;105639;1253;82329;-61
2023/10/23 00:09:38;;;;;;;8.00;4.10;;;;;;;7.60;100.00;100395.44;105527;1254;71790;-61
2023/10/23 00:12:08;;;;;;;5.50;3.40;;;;;;;7.62;100.00;100394.19;105523;1257;69465;-61
2023/10/23 00:14:36;;;;;;;7.10;3.90;;;;;;;7.60;100.00;100395.98;105572;1254;69135;-61
2023/10/23 00:17:05;;;;;;;5.40;3.40;;;;;;;7.57;100.00;100393.08;105588;1254;73257;-61
2023/10/23 00:19:33;;;;;;;7.50;3.90;;;;;;;7.54;100.00;100398.19;105607;1255;81596;-61
2023/10/23 00:22:02;;;;;;;8.90;5.00;;;;;;;7.55;100.00;100400.42;105553;1254;72917;-61
2023/10/23 00:24:30;;;;;;;14.00;6.10;;;;;;;7.60;100.00;100396.67;105554;1256;69151;-61
2023/10/23 00:26:58;;;;;;;8.10;4.40;;;;;;;7.67;100.00;100396.16;105620;1254;69199;-61
2023/10/23 00:29:26;;;;;;;8.00;4.10;;;;;;;7.71;100.00;100398.11;105593;1255;72904;-61
2023/10/23 00:31:54;;;;;;;6.40;4.50;;;;;;;7.77;100.00;100400.24;105536;1255;82673;-61
2023/10/23 00:34:22;;;;;;;8.00;4.40;;;;;;;7.81;100.00;100398.75;105539;1255;71363;-61
2023/10/23 00:36:51;;;;;;;11.40;6.00;;;;;;;7.87;100.00;100399.81;105517;1256;69118;-61
2023/10/23 00:39:19;;;;;;;14.60;7.70;;;;;;;7.92;100.00;100402.83;105585;1255;69197;-61
2023/10/23 00:41:47;;;;;;;12.50;7.20;;;;;;;7.96;100.00;100399.91;105438;1254;72794;-62
2023/10/23 00:44:15;;;;;;;11.40;5.50;;;;;;;8.00;100.00;100394.95;105516;1253;82787;-61
2023/10/23 00:46:44;;;;;;;8.20;5.40;;;;;;;8.01;100.00;100396.13;105542;1254;72788;-62
2023/10/23 00:49:12;;;;;;;6.70;4.30;;;;;;;8.01;100.00;100394.73;105584;1256;69122;-61
2023/10/23 00:51:41;;;;;;;8.20;5.30;;;;;;;8.00;100.00;100393.18;105563;1257;69147;-61
2023/10/23 00:54:09;;;;;;;7.90;5.20;;;;;;;7.99;100.00;100388.16;105622;1254;73324;-61
2023/10/23 00:56:37;;;;;;;8.80;5.90;;;;;;;8.00;100.00;100385.01;105619;1254;81110;-61
2023/10/23 00:59:06;;;;;;;7.60;5.00;;;;;;;8.01;100.00;100389.01;105605;1253;71315;-61
2023/10/23 01:01:35;;;;;;;7.70;4.90;;;;;;;8.01;100.00;100386.56;105616;1257;69108;-61
2023/10/23 01:04:04;;;;;;;6.10;4.80;;;;;;;8.01;100.00;100391.42;105627;1255;69176;-61
2023/10/23 01:06:32;;;;;;;6.90;4.40;;;;;;;7.93;100.00;100393.89;105634;1254;73038;-61
2023/10/23 01:09:00;;;;;;;9.30;4.50;;;;;;;7.85;100.00;100395.67;105529;1255;81523;-61
2023/10/23 01:11:28;;;;;;;10.70;4.30;;;;;;;7.77;100.00;100392.58;105559;1255;72059;-61
2023/10/23 01:13:57;;;;;;;10.70;5.20;;;;;;;7.74;100.00;100389.00;105532;1256;69116;-61
2023/10/23 01:16:25;;;;;;;5.80;4.20;;;;;;;7.72;100.00;100381.23;105615;1253;69276;-61
2023/10/23 01:18:53;;;;;;;8.10;5.60;;;;;;;7.67;100.00;100378.21;105531;1254;72537;-61
2023/10/23 01:21:23;;;;;;;7.80;5.60;;;;;;;7.68;100.00;100378.39;105554;1254;81382;-61
2023/10/23 01:23:51;;;;;;;7.10;4.90;;;;;;;7.68;100.00;100379.41;105532;1253;71626;-61
2023/10/23 01:26:19;;;;;;;6.90;4.80;;;;;;;7.71;100.00;100384.39;105384;1258;69211;-61
2023/10/23 01:28:48;;;;;;;8.50;5.90;;;;;;;7.74;100.00;100375.95;105570;1252;69525;-61
2023/10/23 01:31:16;;;;;;;12.90;6.70;;;;;;;7.77;100.00;100372.57;105535;1253;74850;-61
2023/10/23 01:33:45;;;;;;;12.40;6.80;;;;;;;7.83;100.00;100363.36;105615;1255;82970;-61
2023/10/23 01:36:13;;;;;;;12.20;6.50;;;;;;;7.90;100.00;100365.11;105595;1254;71761;-61
2023/10/23 01:38:43;;;;;;;13.40;7.50;;;;;;;7.94;100.00;100361.52;105383;1257;69113;-61
2023/10/23 01:41:11;;;;;;;11.90;6.70;;;;;;;7.93;100.00;100365.38;105656;1252;69215;-61
2023/10/23 01:43:40;;;;;;;11.90;7.30;;;;;;;7.90;100.00;100363.36;105446;1253;72985;-61
2023/10/23 01:46:08;;;;;;;9.90;5.80;;;;;;;7.87;100.00;100371.10;105591;1252;81654;-61
2023/10/23 01:48:36;;;;;;;10.80;5.80;;;;;;;7.87;100.00;100373.54;105629;1252;73065;-61
2023/10/23 01:51:05;;;;;;;12.10;7.10;;;;;;;7.89;100.00;100374.01;105594;1256;69173;-61
2023/10/23 01:53:33;;;;;;;11.30;6.70;;;;;;;7.94;100.00;100374.59;105602;1255;69192;-61
2023/10/23 01:56:07;;;;;;;6.20;5.10;;;;;;;7.95;100.00;100373.32;105608;1255;71328;-61
2023/10/23 01:58:35;;;;;;;7.50;5.10;;;;;;;7.91;100.00;100378.13;105452;1257;81476;-61
2023/10/23 02:01:03;;;;;;;7.50;4.70;;;;;;;7.94;100.00;100381.38;105416;1253;72276;-61
2023/10/23 02:03:32;;;;;;;7.60;4.90;;;;;;;7.97;100.00;100379.20;105566;1257;69217;-61
2023/10/23 02:06:00;;;;;;;10.20;4.80;;;;;;;7.99;100.00;100380.16;105553;1256;69119;-61
2023/10/23 02:08:29;;;;;;;8.30;5.00;;;;;;;8.05;100.00;100377.23;105609;1253;73473;-61
2023/10/23 02:10:57;;;;;;;19.00;7.10;;;;;;;8.09;100.00;100377.10;105553;1255;82019;-61
2023/10/23 02:13:25;;;;;;;62.90;19.90;;;;;;;8.11;100.00;100376.54;105521;1257;72686;-61
2023/10/23 02:15:53;;;;;;;37.40;15.10;;;;;;;8.17;100.00;100381.77;105515;1254;69168;-61
2023/10/23 02:18:21;;;;;;;18.40;6.90;;;;;;;8.21;100.00;100387.08;105580;1255;69110;-61
2023/10/23 02:20:50;;;;;;;13.80;6.50;;;;;;;8.21;100.00;100383.39;105600;1253;74880;-61
2023/10/23 02:23:18;;;;;;;10.00;5.90;;;;;;;8.23;100.00;100382.83;105503;1257;81672;-61
2023/10/23 02:25:46;;;;;;;10.30;6.70;;;;;;;8.28;100.00;100386.53;105586;1257;71748;-61
2023/10/23 02:28:16;;;;;;;14.10;6.70;;;;;;;8.33;100.00;100386.56;105574;1252;69184;-61
2023/10/23 02:30:44;;;;;;;10.90;5.90;;;;;;;8.38;100.00;100384.15;105627;1254;69423;-61
2023/10/23 02:33:13;;;;;;;11.60;6.60;;;;;;;8.43;100.00;100383.17;105596;1253;73053;-61
2023/10/23 02:35:42;;;;;;;8.90;5.20;;;;;;;8.45;100.00;100386.07;105455;1257;81677;-61
2023/10/23 02:38:11;;;;;;;7.70;4.90;;;;;;;8.46;100.00;100385.52;105553;1257;70807;-60
2023/10/23 02:40:39;;;;;;;14.20;5.80;;;;;;;8.47;100.00;100388.97;105684;1255;69196;-60
2023/10/23 02:43:07;;;;;;;9.00;4.90;;;;;;;8.47;100.00;100390.02;105563;1256;69293;-60
2023/10/23 02:45:36;;;;;;;6.80;4.50;;;;;;;8.48;100.00;100390.16;105574;1252;72790;-60
2023/10/23 02:48:05;;;;;;;10.20;5.70;;;;;;;8.49;100.00;100389.45;105556;1255;81790;-60
2023/10/23 02:50:33;;;;;;;8.00;4.90;;;;;;;8.52;100.00;100392.86;105627;1253;71864;-60
2023/10/23 02:53:01;;;;;;;12.00;5.00;;;;;;;8.54;100.00;100393.84;105580;1256;69091;-60
2023/10/23 02:55:29;;;;;;;7.80;4.80;;;;;;;8.55;100.00;100398.33;105418;1257;69346;-60
2023/10/23 02:58:00;;;;;;;9.60;5.00;;;;;;;8.55;100.00;100397.64;105632;1252;72891;-60
2023/10/23 03:00:28;;;;;;;8.90;5.20;;;;;;;8.54;100.00;100402.02;105544;1256;81515;-60
2023/10/23 03:02:57;;;;;;;9.20;5.30;;;;;;;8.54;100.00;100405.85;105607;1256;72181;-60
2023/10/23 03:05:26;;;;;;;8.50;5.00;;;;;;;8.56;100.00;100406.30;105613;1252;69131;-60
2023/10/23 03:07:54;;;;;;;7.10;4.50;;;;;;;8.57;100.00;100415.17;105635;1252;69405;-60
2023/10/23 03:10:22;;;;;;;8.50;4.90;;;;;;;8.57;100.00;100418.13;105612;1256;72090;-60
2023/10/23 03:12:50;;;;;;;9.20;5.10;;;;;;;8.59;100.00;100418.43;105580;1255;81364;-60
2023/10/23 03:15:20;;;;;;;7.90;5.40;;;;;;;8.60;100.00;100418.04;105561;1253;72965;-60
2023/10/23 03:17:49;;;;;;;7.60;4.80;;;;;;;8.62;100.00;100426.19;105559;1256;69113;-60
2023/10/23 03:20:18;;;;;;;11.10;5.00;;;;;;;8.64;100.00;100427.67;105579;1253;69261;-60
2023/10/23 03:22:46;;;;;;;8.30;5.30;;;;;;;8.65;100.00;100432.54;105655;1253;72463;-60
2023/10/23 03:25:14;;;;;;;7.80;4.90;;;;;;;8.66;100.00;100433.04;105552;1255;81998;-60
2023/10/23 03:27:42;;;;;;;13.10;5.60;;;;;;;8.67;100.00;100434.40;105559;1253;71894;-60
2023/10/23 03:30:11;;;;;;;11.00;5.30;;;;;;;8.67;100.00;100442.40;105518;1253;69279;-60
2023/10/23 03:32:39;;;;;;;9.20;5.20;;;;;;;8.68;100.00;100445.15;105620;1255;69175;-60
2023/10/23 03:35:08;;;;;;;11.20;5.40;;;;;;;8.71;100.00;100449.62;105551;1253;73288;-60
2023/10/23 03:37:36;;;;;;;12.00;5.10;;;;;;;8.71;100.00;100449.77;105617;1254;82759;-60
2023/10/23 03:40:05;;;;;;;8.90;4.40;;;;;;;8.72;100.00;100452.73;105552;1253;70517;-60
2023/10/23 03:42:33;;;;;;;12.00;4.80;;;;;;;8.74;100.00;100451.63;105603;1255;69183;-60
2023/10/23 03:45:05;;;;;;;10.60;4.50;;;;;;;8.75;100.00;100452.98;105532;1255;70693;-59
2023/10/23 03:47:34;;;;;;;6.80;4.00;;;;;;;8.76;100.00;100451.39;105586;1254;71917;-60
2023/10/23 03:50:02;;;;;;;9.40;5.20;;;;;;;8.78;100.00;100451.33;105536;1256;81700;-60
2023/10/23 03:52:30;;;;;;;10.90;6.40;;;;;;;8.79;100.00;100455.64;105574;1252;70587;-60
2023/10/23 03:54:59;;;;;;;17.50;6.40;;;;;;;8.81;100.00;100454.91;105536;1255;69116;-60
2023/10/23 03:57:27;;;;;;;10.70;4.90;;;;;;;8.81;100.00;100453.52;105622;1253;69169;-60
2023/10/23 03:59:55;;;;;;;10.00;4.90;;;;;;;8.80;100.00;100454.92;105541;1253;73067;-60
2023/10/23 04:02:24;;;;;;;8.30;4.80;;;;;;;8.81;100.00;100455.61;105507;1256;82801;-60
2023/10/23 04:04:52;;;;;;;8.30;4.40;;;;;;;8.83;100.00;100456.58;105595;1253;72991;-60
2023/10/23 04:07:20;;;;;;;9.90;5.20;;;;;;;8.83;100.00;100454.48;105560;1256;69170;-60
2023/10/23 04:09:48;;;;;;;7.10;4.60;;;;;;;8.82;100.00;100453.66;105573;1255;70527;-60
2023/10/23 04:12:17;;;;;;;11.70;4.80;;;;;;;8.84;100.00;100459.70;105560;1253;73533;-60
2023/10/23 04:14:45;;;;;;;8.70;4.60;;;;;;;8.84;100.00;100460.91;105535;1256;81747;-60
2023/10/23 04:17:14;;;;;;;8.80;5.00;;;;;;;8.86;100.00;100460.68;105615;1253;71008;-60
2023/10/23 04:19:42;;;;;;;7.80;4.90;;;;;;;8.87;100.00;100465.88;105563;1253;69235;-60
2023/10/23 04:22:10;;;;;;;7.50;4.90;;;;;;;8.87;100.00;100465.33;105538;1253;69211;-60
2023/10/23 04:24:38;;;;;;;8.60;4.80;;;;;;;8.89;100.00;100464.08;105516;1253;73049;-60
2023/10/23 04:27:06;;;;;;;12.00;5.10;;;;;;;8.91;100.00;100467.48;105530;1252;81735;-60
2023/10/23 04:29:34;;;;;;;8.20;4.70;;;;;;;8.92;100.00;100462.58;105517;1253;71930;-60
2023/10/23 04:32:03;;;;;;;8.20;4.60;;;;;;;8.93;100.00;100459.08;105567;1253;69062;-60
2023/10/23 04:34:31;;;;;;;9.70;5.40;;;;;;;8.94;100.00;100455.05;105614;1255;69185;-60
2023/10/23 04:36:59;;;;;;;10.40;5.00;;;;;;;8.95;100.00;100460.40;105596;1253;72496;-60
2023/10/23 04:39:28;;;;;;;9.10;5.30;;;;;;;8.95;100.00;100457.27;105503;1256;81909;-61
2023/10/23 04:41:56;;;;;;;12.10;5.50;;;;;;;8.94;100.00;100458.16;105448;1253;72005;-60
2023/10/23 04:44:25;;;;;;;8.20;5.00;;;;;;;8.93;100.00;100457.34;105481;1256;69139;-61
2023/10/23 04:46:53;;;;;;;10.60;5.90;;;;;;;8.93;100.00;100453.34;105513;1254;69131;-60
2023/10/23 04:49:22;;;;;;;10.30;5.80;;;;;;;8.93;100.00;100457.67;105446;1253;74141;-61
2023/10/23 04:51:50;;;;;;;12.40;5.60;;;;;;;8.94;100.00;100460.59;105517;1256;81471;-61
2023/10/23 04:54:18;;;;;;;10.20;5.10;;;;;;;8.96;100.00;100463.71;105454;1253;71648;-61
2023/10/23 04:56:46;;;;;;;8.50;5.30;;;;;;;8.97;100.00;100463.84;105452;1253;69116;-60
2023/10/23 04:59:15;;;;;;;11.40;5.90;;;;;;;8.97;100.00;100461.74;105551;1255;69218;-61
2023/10/23 05:01:43;;;;;;;9.90;5.60;;;;;;;8.96;100.00;100463.52;105464;1253;72212;-61
2023/10/23 05:04:11;;;;;;;8.80;5.80;;;;;;;8.95;100.00;100462.67;105521;1256;82072;-60
2023/10/23 05:06:40;;;;;;;9.70;6.30;;;;;;;8.96;100.00;100464.56;105576;1253;70159;-60
2023/10/23 05:09:10;;;;;;;11.00;6.50;;;;;;;8.97;100.00;100468.71;105456;1255;69115;-60
2023/10/23 05:11:38;;;;;;;;;;;;;;;8.98;100.00;100472.34;105438;1255;69179;-61
2023/10/23 05:14:07;;;;;;;12.50;6.70;;;;;;;9.00;100.00;100472.48;105529;1252;72873;-61
2023/10/23 05:16:35;;;;;;;11.50;6.50;;;;;;;9.00;100.00;100479.80;105577;1256;81762;-61
2023/10/23 05:19:03;;;;;;;12.50;6.80;;;;;;;9.00;100.00;100482.59;105432;1253;72981;-61
2023/10/23 05:21:31;;;;;;;10.90;6.10;;;;;;;8.99;100.00;100489.77;105470;1253;69195;-61
2023/10/23 05:23:59;;;;;;;11.00;6.70;;;;;;;8.98;100.00;100491.36;105451;1253;69164;-60
2023/10/23 05:26:27;;;;;;;10.50;5.80;;;;;;;8.98;100.00;100496.94;105455;1253;73017;-60
2023/10/23 05:28:55;;;;;;;13.20;6.30;;;;;;;8.99;100.00;100495.16;105500;1256;81384;-61
2023/10/23 05:31:24;;;;;;;12.90;6.10;;;;;;;9.00;100.00;100495.14;105492;1256;71633;-60
2023/10/23 05:33:52;;;;;;;8.10;5.40;;;;;;;9.01;100.00;100496.51;105425;1256;69247;-61
2023/10/23 05:36:20;;;;;;;11.20;6.30;;;;;;;9.02;100.00;100500.63;105463;1257;69113;-61
2023/10/23 05:38:48;;;;;;;9.50;5.80;;;;;;;9.03;100.00;100500.27;105508;1253;73258;-61
2023/10/23 05:41:16;;;;;;;8.20;5.50;;;;;;;9.05;100.00;100504.04;105463;1253;81696;-61
2023/10/23 05:43:45;;;;;;;10.70;5.50;;;;;;;9.07;100.00;100508.86;105472;1253;70953;-60
2023/10/23 05:46:13;;;;;;;10.10;6.00;;;;;;;9.08;100.00;100508.81;105434;1253;69111;-60
2023/10/23 05:48:41;;;;;;;8.60;5.40;;;;;;;9.09;100.00;100514.90;105477;1256;69317;-60
2023/10/23 05:51:09;;;;;;;8.70;5.10;;;;;;;9.10;100.00;100512.60;105484;1253;73070;-61
2023/10/23 05:53:37;;;;;;;8.10;5.30;;;;;;;9.13;100.00;100515.67;105489;1256;81409;-60
2023/10/23 05:56:06;;;;;;;6.80;4.70;;;;;;;9.17;100.00;100518.00;105423;1253;70569;-61
2023/10/23 05:58:35;;;;;;;11.10;5.20;;;;;;;9.20;100.00;100521.73;105477;1256;69190;-60
2023/10/23 06:01:07;;;;;;;8.60;5.60;;;;;;;9.24;100.00;100523.55;105471;1253;69171;-60
2023/10/23 06:03:36;;;;;;;8.90;4.70;;;;;;;9.27;100.00;100527.79;105470;1253;74227;-60
2023/10/23 06:06:05;;;;;;;11.50;5.40;;;;;;;9.28;100.00;100528.82;105561;1252;81441;-60
2023/10/23 06:08:33;;;;;;;12.50;5.00;;;;;;;9.31;100.00;100532.06;105773;1253;73420;-59
2023/10/23 06:11:01;;;;;;;10.50;6.10;;;;;;;9.34;100.00;100536.14;105597;1253;69125;-60
2023/10/23 06:13:29;;;;;;;13.30;4.90;;;;;;;9.36;100.00;100539.57;105490;1253;69277;-60
2023/10/23 06:16:04;;;;;;;10.80;5.80;;;;;;;9.36;100.00;100540.77;105716;1253;72708;-60
2023/10/23 06:18:37;;;;;;;9.00;4.90;;;;;;;9.39;100.00;100540.89;105652;1254;81357;-61
2023/10/23 06:21:06;;;;;;;10.10;5.60;;;;;;;9.41;100.00;100541.52;105703;1253;71492;-60
2023/10/23 06:23:37;;;;;;;8.10;5.20;;;;;;;9.44;100.00;100544.23;105640;1252;69607;-62
2023/10/23 06:26:06;;;;;;;14.50;5.30;;;;;;;9.47;100.00;100549.36;105694;1253;69929;-61
2023/10/23 06:28:35;;;;;;;12.60;5.90;;;;;;;9.50;100.00;100552.42;105693;1254;72815;-61
2023/10/23 06:31:08;;;;;;;9.70;5.00;;;;;;;9.51;100.00;100556.91;105740;1253;82654;-62
2023/10/23 06:33:42;;;;;;;8.60;4.90;;;;;;;9.53;100.00;100553.89;105462;1253;73145;-60
2023/10/23 06:36:11;;;;;;;7.60;4.40;;;;;;;9.54;100.00;100556.11;105570;1257;69240;-61
2023/10/23 06:38:39;;;;;;;9.40;4.70;;;;;;;9.56;100.00;100555.02;105528;1253;69113;-60
2023/10/23 06:41:07;;;;;;;9.00;4.50;;;;;;;9.57;100.00;100556.73;105588;1254;72044;-61
2023/10/23 06:43:37;;;;;;;8.60;4.70;;;;;;;9.58;100.00;100556.69;105646;1255;82182;-61
2023/10/23 06:46:06;;;;;;;9.50;4.70;;;;;;;9.60;100.00;100560.32;105489;1253;72899;-61
2023/10/23 06:48:34;;;;;;;9.10;4.90;;;;;;;9.61;100.00;100560.98;105658;1256;69200;-61
2023/10/23 06:51:04;;;;;;;7.70;4.80;;;;;;;9.65;100.00;100561.02;105628;1257;69203;-61
2023/10/23 06:53:32;;;;;;;8.80;4.70;;;;;;;9.68;100.00;100558.30;105693;1255;72814;-61
2023/10/23 06:56:01;;;;;;;12.50;4.70;;;;;;;9.72;100.00;100556.10;105645;1255;81589;-60
2023/10/23 06:58:29;;;;;;;12.60;6.20;;;;;;;9.74;100.00;100554.45;105771;1252;72116;-60
2023/10/23 07:01:04;;;;;;;13.50;8.10;;;;;;;9.78;100.00;100558.18;105621;1256;69122;-61
2023/10/23 07:03:32;;;;;;;9.50;6.90;;;;;;;9.81;100.00;100556.33;105751;1253;69540;-61
2023/10/23 07:06:07;;;;;;;12.50;6.80;;;;;;;9.86;100.00;100560.04;105797;1256;74101;-61
2023/10/23 07:08:38;;;;;;;6.00;4.30;;;;;;;9.91;100.00;100565.65;105561;1258;81672;-60
2023/10/23 07:11:18;;;;;;;13.70;4.80;;;;;;;9.94;100.00;100568.67;105597;1255;70942;-61
2023/10/23 07:13:47;;;;;;;10.90;5.10;;;;;;;9.98;100.00;100572.20;105610;1253;69187;-61
2023/10/23 07:16:16;;;;;;;9.80;5.10;;;;;;;10.01;100.00;100579.10;105645;1255;69241;-61
2023/10/23 07:18:45;;;;;;;11.40;5.50;;;;;;;10.03;100.00;100582.70;105683;1253;74156;-61
2023/10/23 07:21:13;;;;;;;12.00;5.20;;;;;;;10.05;100.00;100580.54;105549;1256;81159;-61
2023/10/23 07:23:43;;;;;;;8.60;5.90;;;;;;;10.09;100.00;100586.53;105588;1253;72839;-61
2023/10/23 07:26:12;;;;;;;10.40;6.00;;;;;;;10.16;100.00;100589.98;105555;1257;69840;-61
2023/10/23 07:28:41;;;;;;;14.30;5.90;;;;;;;10.22;100.00;100585.23;105612;1253;69065;-60
2023/10/23 07:31:10;;;;;;;14.20;8.40;;;;;;;10.26;100.00;100586.31;105630;1253;73941;-61
2023/10/23 07:33:39;;;;;;;55.50;24.60;;;;;;;10.32;100.00;100584.59;105667;1257;81469;-60
2023/10/23 07:36:10;;;;;;;73.40;32.10;;;;;;;10.36;100.00;100584.10;105699;1253;72952;-61
2023/10/23 07:38:42;;;;;;;39.60;16.30;;;;;;;10.43;100.00;100583.34;105729;1255;69133;-60
2023/10/23 07:41:12;;;;;;;28.20;11.50;;;;;;;10.53;100.00;100584.44;105626;1255;69662;-59
2023/10/23 07:43:41;;;;;;;26.00;11.20;;;;;;;10.59;100.00;100579.33;105592;1253;73075;-58
2023/10/23 07:46:10;;;;;;;15.80;7.30;;;;;;;10.64;100.00;100581.23;105557;1256;82707;-60
2023/10/23 07:48:41;;;;;;;16.00;6.50;;;;;;;10.71;100.00;100580.48;105013;1263;73327;-60
2023/10/23 07:51:10;;;;;;;11.40;7.10;;;;;;;10.77;100.00;100576.06;104915;1260;69259;-60
2023/10/23 07:53:38;;;;;;;10.10;6.30;;;;;;;10.85;100.00;100577.73;104952;1263;69197;-59
2023/10/23 07:56:06;;;;;;;10.30;6.40;;;;;;;10.91;100.00;100575.42;104907;1263;71724;-59
2023/10/23 07:58:35;;;;;;;13.20;6.80;;;;;;;10.99;100.00;100576.36;104927;1264;82212;-59
2023/10/23 08:01:08;;;;;;;14.30;6.30;;;;;;;11.09;100.00;100578.06;104975;1259;71994;-59
2023/10/23 08:03:37;;;;;;;10.50;6.00;;;;;;;11.19;100.00;100578.59;105017;1259;69199;-59
2023/10/23 08:06:08;;;;;;;12.40;5.80;;;;;;;11.27;100.00;100575.49;105022;1260;69414;-59
2023/10/23 08:08:38;;;;;;;12.80;5.70;;;;;;;11.35;100.00;100572.23;105474;1253;72814;-59
2023/10/23 08:11:08;;;;;;;8.40;4.80;;;;;;;11.44;100.00;100570.50;105556;1253;82268;-59
2023/10/23 08:13:37;;;;;;;7.90;4.40;;;;;;;11.51;100.00;100576.01;105544;1257;72380;-59
2023/10/23 08:16:06;;;;;;;8.60;5.10;;;;;;;11.61;100.00;100576.85;105583;1255;69076;-59
2023/10/23 08:18:34;;;;;;;18.00;7.30;;;;;;;11.72;100.00;100577.98;105590;1253;69193;-59
2023/10/23 08:21:11;;;;;;;16.70;6.80;;;;;;;11.83;100.00;100575.29;105622;1253;71795;-59
2023/10/23 08:23:46;;;;;;;12.70;5.80;;;;;;;11.92;100.00;100573.91;105535;1255;81473;-58
2023/10/23 08:26:15;;;;;;;10.00;4.70;;;;;;;12.00;100.00;100572.19;105500;1255;73940;-58
2023/10/23 08:28:43;;;;;;;8.60;4.90;;;;;;;12.06;100.00;100573.35;105583;1253;69221;-59
2023/10/23 08:31:15;;;;;;;10.90;5.10;;;;;;;12.13;100.00;100579.56;104953;1258;69201;-58
2023/10/23 08:34:03;;;;;;;9.80;5.00;;;;;;;12.20;100.00;100576.11;104983;1263;72812;-59
2023/10/23 08:36:32;;;;;;;12.90;6.80;;;;;;;12.33;100.00;100581.89;104966;1263;82779;-59
2023/10/23 08:39:02;;;;;;;12.90;6.10;;;;;;;12.49;100.00;100579.46;105031;1259;71907;-60
2023/10/23 08:41:31;;;;;;;8.80;4.20;;;;;;;12.62;100.00;100571.02;105010;1263;69338;-59
2023/10/23 08:44:00;;;;;;;8.20;3.40;;;;;;;12.71;100.00;100568.86;105055;1259;69233;-60
2023/10/23 08:46:33;;;;;;;7.00;3.60;;;;;;;12.83;100.00;100569.95;105053;1259;74295;-60
2023/10/23 08:49:02;;;;;;;9.40;3.40;;;;;;;13.01;100.00;100569.48;105150;1256;81525;-61
2023/10/23 08:51:31;;;;;;;9.50;3.90;;;;;;;13.27;100.00;100560.45;105531;1255;72990;-60
2023/10/23 08:54:15;;;;;;;8.30;3.30;;;;;;;13.54;100.00;100560.29;106156;1253;69116;-60
2023/10/23 08:56:44;;;;;;;7.80;3.70;;;;;;;13.79;100.00;100553.47;105535;1253;69937;-61
2023/10/23 08:59:14;;;;;;;9.40;3.90;;;;;;;13.95;100.00;100554.62;105522;1253;71932;-61
2023/10/23 09:01:42;;;;;;;7.30;3.60;;;;;;;14.04;100.00;100555.42;105483;1253;81909;-61
2023/10/23 09:04:11;;;;;;;8.70;3.80;;;;;;;14.12;100.00;100556.62;105483;1253;73062;-60
2023/10/23 09:06:42;;;;;;;8.50;4.30;;;;;;;14.18;100.00;100558.78;105402;1253;200201;-60
2023/10/23 09:09:11;;;;;;;10.20;4.40;;;;;;;14.27;100.00;100564.30;105569;1255;69279;-61
2023/10/23 09:11:44;;;;;;;9.60;4.10;;;;;;;14.44;100.00;100559.98;105501;1253;72789;-61
2023/10/23 09:14:27;;;;;;;9.70;3.70;;;;;;;14.65;100.00;100559.59;105605;1253;82717;-61
2023/10/23 09:16:56;;;;;;;7.50;3.20;;;;;;;14.90;100.00;100557.96;105513;1253;73104;-60
2023/10/23 09:19:40;;;;;;;8.90;3.40;;;;;;;15.13;100.00;100556.21;105535;1253;69196;-60
2023/10/23 09:22:10;;;;;;;5.70;3.20;;;;;;;15.41;100.00;100560.20;105534;1253;69083;-60
2023/10/23 09:24:39;;;;;;;9.40;3.10;;;;;;;15.59;100.00;100561.61;105541;1255;73295;-60
2023/10/23 09:27:07;;;;;;;10.20;3.10;;;;;;;15.79;100.00;100561.83;105613;1255;83641;-60
2023/10/23 09:29:36;;;;;;;9.50;3.00;;;;;;;15.91;100.00;100561.14;105492;1253;72184;-60
2023/10/23 09:32:05;;;;;;;7.80;2.30;;;;;;;15.96;100.00;100560.35;105521;1256;69164;-61
2023/10/23 09:34:40;;;;;;;3.70;1.60;;;;;;;16.07;100.00;100562.33;105509;1257;69182;-60
2023/10/23 09:37:08;;;;;;;8.10;1.70;;;;;;;16.27;100.00;100564.01;105501;1257;73190;-60
2023/10/23 09:39:37;;;;;;;7.20;2.00;;;;;;;16.49;100.00;100564.81;105534;1257;81939;-60
2023/10/23 09:42:08;;;;;;;7.40;1.80;;;;;;;16.70;100.00;100567.83;105504;1257;73156;-60
2023/10/23 09:44:37;;;;;;;7.60;1.90;;;;;;;16.85;100.00;100570.45;105479;1254;69205;-60
2023/10/23 09:47:05;;;;;;;6.30;2.30;;;;;;;17.07;100.00;100570.02;105513;1258;69155;-60
2023/10/23 09:49:34;;;;;;;9.50;2.10;;;;;;;17.28;100.00;100566.22;105493;1253;74154;-60
2023/10/23 09:52:07;;;;;;;7.80;2.30;;;;;;;17.50;100.00;100564.55;105588;1253;82805;-60
2023/10/23 09:54:38;;;;;;;7.80;1.80;;;;;;;17.65;100.00;100563.38;105514;1255;72200;-61
2023/10/23 09:57:08;;;;;;;6.50;1.90;;;;;;;17.88;100.00;100563.02;105482;1253;69176;-60
2023/10/23 09:59:49;;;;;;;5.80;1.80;;;;;;;18.10;100.00;100561.54;105510;1256;69196;-60
2023/10/23 10:02:18;;;;;;;4.20;1.40;;;;;;;18.25;100.00;100558.59;105495;1253;73092;-60
2023/10/23 10:04:56;;;;;;;6.60;1.90;;;;;;;18.44;100.00;100553.25;105514;1253;82314;-60
2023/10/23 10:08:02;;;;;;;6.50;1.80;;;;;;;18.66;100.00;100549.30;105526;1253;72798;-60
2023/10/23 10:10:33;;;;;;;7.10;2.40;;;;;;;18.96;100.00;100548.70;105386;1254;69226;-61
2023/10/23 10:13:02;;;;;;;5.00;2.00;;;;;;;19.02;100.00;100551.26;105544;1253;69392;-61
2023/10/23 10:15:34;;;;;;;6.10;1.80;;;;;;;18.94;100.00;100550.81;105560;1253;74221;-60
2023/10/23 10:18:03;;;;;;;6.80;1.90;;;;;;;18.81;100.00;100547.81;105480;1257;82674;-60
2023/10/23 10:20:32;;;;;;;6.80;2.10;;;;;;;18.92;100.00;100546.67;105546;1254;72765;-60
2023/10/23 10:23:11;;;;;;;5.00;1.60;;;;;;;19.11;100.00;100542.30;105547;1254;69122;-60
2023/10/23 10:25:41;;;;;;;4.30;1.50;;;;;;;18.92;100.00;100540.44;105567;1255;69193;-60
2023/10/23 10:28:09;;;;;;;6.90;1.70;;;;;;;18.99;100.00;100538.20;105611;1253;72880;-61
2023/10/23 10:30:45;;;;;;;5.80;1.50;;;;;;;19.15;100.00;100536.23;105583;1255;82988;-61
2023/10/23 10:33:22;;;;;;;4.00;1.10;;;;;;;19.30;100.00;100536.20;105529;1252;71855;-60
2023/10/23 10:36:11;;;;;;;6.20;1.30;;;;;;;19.27;100.00;100541.00;105462;1253;69098;-60
2023/10/23 10:38:41;;;;;;;5.30;1.30;;;;;;;19.06;100.00;100537.20;105563;1253;69257;-60
2023/10/23 10:41:18;;;;;;;6.80;1.60;;;;;;;19.21;99.89;100536.36;105529;1256;74152;-61
2023/10/23 10:43:51;;;;;;;3.60;1.30;;;;;;;19.13;99.66;100531.23;105498;1259;80340;-60
2023/10/23 10:46:29;;;;;;;4.30;1.70;;;;;;;18.93;99.23;100529.92;105518;1256;72309;-60
2023/10/23 10:48:57;;;;;;;7.40;1.60;;;;;;;18.72;98.74;100535.09;105566;1255;69124;-60
2023/10/23 10:51:27;;;;;;;8.00;2.20;;;;;;;18.46;98.15;100532.99;105502;1255;69164;-60
2023/10/23 10:54:03;;;;;;;5.30;2.00;;;;;;;18.20;97.76;100539.48;105454;1253;74039;-60
2023/10/23 10:56:32;;;;;;;4.90;1.60;;;;;;;17.96;97.26;100537.03;105544;1255;82025;-60
2023/10/23 10:59:01;;;;;;;4.50;1.40;;;;;;;17.69;96.45;100533.25;105578;1253;73079;-60
2023/10/23 11:01:30;;;;;;;4.20;1.40;;;;;;;17.45;96.37;100532.30;105576;1254;69211;-60
2023/10/23 11:03:59;;;;;;;4.40;1.70;;;;;;;17.36;96.56;100532.85;105570;1255;69267;-60
2023/10/23 11:06:29;;;;;;;7.00;1.40;;;;;;;17.28;96.62;100531.98;105580;1253;73095;-61
2023/10/23 11:08:58;;;;;;;4.90;1.60;;;;;;;17.34;96.89;100530.70;105584;1255;81556;-66
2023/10/23 11:11:28;;;;;;;3.90;1.10;;;;;;;17.50;96.98;100532.73;105506;1255;73128;-62
2023/10/23 11:13:59;;;;;;;4.60;1.20;;;;;;;17.61;96.69;100534.48;105583;1253;69081;-58
2023/10/23 11:16:30;;;;;;;7.70;1.50;;;;;;;17.83;96.84;100531.33;105558;1255;69136;-58
2023/10/23 11:19:00;;;;;;;5.80;1.40;;;;;;;18.22;96.46;100529.85;105508;1253;73511;-58
2023/10/23 11:21:29;;;;;;;5.40;1.30;;;;;;;18.58;96.23;100529.70;105524;1257;82812;-58
2023/10/23 11:23:57;;;;;;;4.80;1.50;;;;;;;18.98;96.16;100535.81;105531;1253;72118;-59